Time;durP1;ratioP1;P1;durP2;ratioP2;P2;SDS_P1;SDS_P2;PMS_P1;PMS_P2;Temp;Humidity;BMP_temperature;BMP_pressure;BME280_temperature;BME280_humidity;BME280_pressure;Samples;Min_cycle;Max_cycle;Signal;HPM_P1;HPM_P2
2021/03/06 00:00:37;;;;;;;16.50;4.68;;;-1.90;84.20;;;;;;6192001;22;20078;-83
2021/03/06 00:03:03;;;;;;;17.65;5.35;;;-1.90;84.00;;;;;;6217768;22;20437;-83
2021/03/06 00:05:29;;;;;;;16.63;6.38;;;-1.90;83.90;;;;;;6193312;22;20015;-83
2021/03/06 00:07:55;;;;;;;11.40;5.45;;;-1.90;84.10;;;;;;6217033;22;20310;-83
2021/03/06 00:10:21;;;;;;;16.35;5.65;;;-1.80;84.30;;;;;;6189700;22;20015;-82
2021/03/06 00:12:47;;;;;;;14.23;5.85;;;-1.90;84.30;;;;;;6193282;22;20016;-83
2021/03/06 00:15:18;;;;;;;14.13;5.72;;;-1.80;84.40;;;;;;6191826;22;20019;-83
2021/03/06 00:17:44;;;;;;;12.90;5.30;;;-1.80;84.40;;;;;;6216128;22;20012;-82
2021/03/06 00:20:10;;;;;;;13.18;4.80;;;-1.90;84.30;;;;;;6192659;22;20348;-83
2021/03/06 00:22:35;;;;;;;13.02;4.50;;;-1.80;84.30;;;;;;6217504;22;20090;-82
2021/03/06 00:25:07;;;;;;;9.68;5.38;;;-1.90;84.60;;;;;;6218180;22;20015;-81
2021/03/06 00:27:34;;;;;;;9.82;4.70;;;-1.90;85.10;;;;;;6202664;22;20435;-83
2021/03/06 00:29:59;;;;;;;12.63;5.38;;;-1.90;85.10;;;;;;6193176;22;20083;-83
2021/03/06 00:32:25;;;;;;;13.57;4.22;;;-1.90;85.00;;;;;;6190944;22;20081;-83
2021/03/06 00:34:51;;;;;;;11.85;4.22;;;-1.90;85.10;;;;;;6216682;22;20016;-83
2021/03/06 00:37:17;;;;;;;15.20;4.78;;;-1.90;85.00;;;;;;6243870;22;20030;-82
2021/03/06 00:39:42;;;;;;;12.02;4.68;;;-1.90;85.00;;;;;;6193721;22;20011;-82
2021/03/06 00:42:08;;;;;;;17.73;4.60;;;-2.00;85.00;;;;;;6193290;22;20031;-82
2021/03/06 00:44:34;;;;;;;13.55;4.47;;;-2.00;85.00;;;;;;6196350;22;20348;-83
2021/03/06 00:47:00;;;;;;;16.33;4.57;;;-2.00;85.00;;;;;;6196326;22;20011;-82
2021/03/06 00:49:27;;;;;;;13.55;4.63;;;-2.00;85.10;;;;;;6194662;22;20058;-82
2021/03/06 00:51:52;;;;;;;10.38;4.30;;;-2.00;85.30;;;;;;6193994;22;20511;-83
2021/03/06 00:54:18;;;;;;;14.50;5.30;;;-2.00;85.60;;;;;;6218426;22;20027;-83
2021/03/06 00:56:44;;;;;;;11.77;4.60;;;-1.90;85.70;;;;;;6193281;22;20015;-83
2021/03/06 00:59:10;;;;;;;12.05;3.67;;;-1.90;85.70;;;;;;6193828;22;20015;-82
2021/03/06 01:01:35;;;;;;;13.05;4.25;;;-1.90;85.70;;;;;;6193691;22;20086;-83
2021/03/06 01:04:01;;;;;;;12.65;4.63;;;-1.90;85.60;;;;;;6194425;22;20011;-83
2021/03/06 01:06:27;;;;;;;10.32;3.90;;;-1.90;85.60;;;;;;6217212;22;20089;-83
2021/03/06 01:08:53;;;;;;;15.73;3.80;;;-1.90;85.30;;;;;;6193654;22;20448;-82
2021/03/06 01:11:18;;;;;;;15.57;4.15;;;-1.90;85.30;;;;;;6193613;22;20444;-81
2021/03/06 01:13:44;;;;;;;16.77;4.63;;;-1.90;85.40;;;;;;6193095;22;20011;-82
2021/03/06 01:16:10;;;;;;;16.42;5.55;;;-1.80;85.50;;;;;;6216862;22;20019;-83
2021/03/06 01:18:36;;;;;;;13.82;4.55;;;-1.80;85.40;;;;;;6192658;22;20379;-82
2021/03/06 01:21:01;;;;;;;15.40;4.45;;;-1.60;85.70;;;;;;6192114;22;20020;-81
2021/03/06 01:23:27;;;;;;;13.45;4.93;;;-1.70;85.80;;;;;;6194184;22;20030;-81
2021/03/06 01:25:53;;;;;;;16.50;5.60;;;-1.70;86.10;;;;;;6224202;22;20015;-82
2021/03/06 01:28:19;;;;;;;18.63;5.20;;;-1.70;86.20;;;;;;6195222;22;20131;-83
2021/03/06 01:30:45;;;;;;;14.13;5.15;;;-1.70;85.90;;;;;;6192515;22;20091;-83
2021/03/06 01:33:10;;;;;;;15.50;4.72;;;-1.70;86.00;;;;;;6191976;22;20014;-82
2021/03/06 01:35:36;;;;;;;14.13;4.65;;;-1.70;86.20;;;;;;6192748;22;20092;-81
2021/03/06 01:38:02;;;;;;;11.90;5.13;;;-1.70;86.20;;;;;;6218047;22;20078;-81
2021/03/06 01:40:36;;;;;;;12.88;5.25;;;-1.70;86.40;;;;;;6217985;22;20432;-82
2021/03/06 01:43:06;;;;;;;13.88;5.30;;;-1.70;86.50;;;;;;6205180;22;20066;-83
2021/03/06 01:45:31;;;;;;;11.80;6.03;;;-1.60;86.80;;;;;;6192221;22;20042;-83
2021/03/06 01:47:57;;;;;;;12.55;5.30;;;-1.50;87.40;;;;;;6190236;22;20007;-83
2021/03/06 01:50:29;;;;;;;11.27;4.97;;;-1.50;87.60;;;;;;6192434;22;20050;-82
2021/03/06 01:52:55;;;;;;;9.10;5.38;;;-1.40;87.30;;;;;;6167877;22;20031;-83
2021/03/06 01:55:22;;;;;;;21.27;5.32;;;-1.40;87.30;;;;;;6217952;22;20165;-81
2021/03/06 01:57:48;;;;;;;18.25;6.15;;;-1.30;88.40;;;;;;6192884;22;20276;-82
2021/03/06 02:00:14;;;;;;;17.48;5.82;;;-1.30;87.50;;;;;;6192291;22;20463;-82
2021/03/06 02:02:41;;;;;;;14.57;5.68;;;-1.20;87.30;;;;;;6192396;22;20022;-82
2021/03/06 02:05:07;;;;;;;12.88;5.30;;;-1.20;87.60;;;;;;6192986;22;20014;-84
2021/03/06 02:07:33;;;;;;;12.63;5.55;;;-1.10;87.90;;;;;;6192054;22;20012;-83
2021/03/06 02:10:00;;;;;;;15.90;4.53;;;-1.10;87.90;;;;;;6193796;22;20016;-83
2021/03/06 02:12:38;;;;;;;16.33;4.72;;;-1.00;87.80;;;;;;6193280;22;20015;-82
2021/03/06 02:15:38;;;;;;;17.45;5.75;;;-1.00;87.70;;;;;;6252227;22;20065;-83
2021/03/06 02:18:11;;;;;;;24.00;6.70;;;-1.00;87.70;;;;;;6253464;22;20169;-83
2021/03/06 02:20:47;;;;;;;;;;;-0.90;87.80;;;;;;6193092;22;20015;-83
2021/03/06 02:23:25;;;;;;;13.00;5.57;;;-0.90;88.00;;;;;;6243961;22;19982;-81
2021/03/06 02:26:13;;;;;;;13.60;5.95;;;-0.80;87.50;;;;;;6217195;22;20014;-83
2021/03/06 02:29:04;;;;;;;17.80;5.82;;;-0.80;87.70;;;;;;6243286;22;20174;-82
2021/03/06 02:31:31;;;;;;;16.80;6.10;;;-0.80;87.80;;;;;;6245479;22;20011;-81
2021/03/06 02:34:05;;;;;;;17.52;6.38;;;-0.70;87.80;;;;;;6194000;22;20015;-83
2021/03/06 02:36:33;;;;;;;16.67;6.28;;;-0.70;88.00;;;;;;6195145;22;20082;-84
2021/03/06 02:38:59;;;;;;;24.65;6.10;;;-0.60;88.00;;;;;;6192508;22;20086;-83
2021/03/06 02:41:27;;;;;;;16.52;6.93;;;-0.60;87.90;;;;;;6167343;22;20046;-81
2021/03/06 02:43:53;;;;;;;16.42;6.43;;;-0.60;88.00;;;;;;6167757;22;20337;-83
2021/03/06 02:46:24;;;;;;;15.90;5.72;;;-0.60;88.20;;;;;;6191952;22;20046;-83
2021/03/06 02:48:50;;;;;;;16.45;6.03;;;-0.60;88.10;;;;;;6190992;22;20007;-83
2021/03/06 02:51:16;;;;;;;18.05;6.70;;;-0.50;88.20;;;;;;6216455;22;20026;-83
2021/03/06 02:53:42;;;;;;;15.15;6.53;;;-0.50;88.20;;;;;;6242048;22;20094;-83
2021/03/06 02:56:08;;;;;;;17.48;5.78;;;-0.50;88.20;;;;;;6216500;22;20012;-81
2021/03/06 02:58:55;;;;;;;17.50;8.40;;;-0.40;88.20;;;;;;6191222;22;20012;-82
2021/03/06 03:01:29;;;;;;;15.52;6.45;;;-0.40;88.20;;;;;;6247050;22;20011;-83
2021/03/06 03:04:08;;;;;;;23.50;7.07;;;-0.40;88.70;;;;;;6216025;22;20008;-82
2021/03/06 03:06:35;;;;;;;17.40;6.65;;;-0.30;88.70;;;;;;6225686;22;20008;-82
2021/03/06 03:09:34;;;;;;;19.38;7.53;;;-0.30;88.60;;;;;;6217193;22;20439;-83
2021/03/06 03:12:06;;;;;;;18.67;7.22;;;-0.20;89.20;;;;;;6220757;22;20020;-84
2021/03/06 03:14:35;;;;;;;17.75;6.85;;;-0.20;89.70;;;;;;6228164;22;20347;-83
2021/03/06 03:17:05;;;;;;;18.75;7.72;;;-0.10;89.80;;;;;;6191793;22;20316;-82
2021/03/06 03:19:33;;;;;;;20.45;7.30;;;-0.10;89.80;;;;;;6192442;22;20379;-83
2021/03/06 03:22:00;;;;;;;26.45;7.28;;;-0.10;89.70;;;;;;6164491;22;20033;-83
2021/03/06 03:24:28;;;;;;;15.25;6.57;;;0.00;89.40;;;;;;6192409;22;20023;-83
2021/03/06 03:26:54;;;;;;;14.48;5.75;;;0.10;89.20;;;;;;6191469;22;20030;-82
2021/03/06 03:29:20;;;;;;;16.75;6.78;;;0.10;89.70;;;;;;6216759;22;20007;-83
2021/03/06 03:31:47;;;;;;;18.25;7.53;;;0.00;89.00;;;;;;6192240;22;20016;-83
2021/03/06 03:34:12;;;;;;;21.88;6.95;;;0.10;89.40;;;;;;6217471;22;20046;-83
2021/03/06 03:36:38;;;;;;;16.92;6.10;;;0.10;89.30;;;;;;6190313;22;20019;-82
2021/03/06 03:39:04;;;;;;;12.95;5.45;;;0.10;89.20;;;;;;6217657;22;20337;-84
2021/03/06 03:41:30;;;;;;;25.13;7.07;;;0.20;89.20;;;;;;6216809;22;20015;-83
2021/03/06 03:43:59;;;;;;;12.05;5.55;;;0.20;89.40;;;;;;6192309;22;20096;-83
2021/03/06 03:46:25;;;;;;;19.08;6.40;;;0.20;89.40;;;;;;6191368;22;20008;-84
2021/03/06 03:48:51;;;;;;;17.77;7.00;;;0.20;89.30;;;;;;6195450;22;20014;-83
2021/03/06 03:51:17;;;;;;;16.77;5.95;;;0.20;89.60;;;;;;6191975;22;20351;-82
2021/03/06 03:53:43;;;;;;;12.88;5.30;;;0.30;89.60;;;;;;6218113;22;20153;-84
2021/03/06 03:56:08;;;;;;;16.77;6.03;;;0.30;89.50;;;;;;6193255;22;20042;-84
2021/03/06 03:58:34;;;;;;;20.73;6.03;;;0.30;89.50;;;;;;6214918;22;20058;-83
2021/03/06 04:01:00;;;;;;;19.25;7.13;;;0.30;89.70;;;;;;6189714;22;20020;-83
2021/03/06 04:03:27;;;;;;;19.75;5.85;;;0.40;89.90;;;;;;6191133;22;20101;-83
2021/03/06 04:05:53;;;;;;;16.65;5.53;;;0.40;89.70;;;;;;6190612;22;20153;-83
2021/03/06 04:08:18;;;;;;;16.90;6.45;;;0.40;89.80;;;;;;6190614;22;20420;-82
2021/03/06 04:10:44;;;;;;;20.52;6.82;;;0.40;89.70;;;;;;6189132;22;20023;-84
2021/03/06 04:13:10;;;;;;;12.40;5.72;;;0.40;89.80;;;;;;6241110;22;20440;-82
2021/03/06 04:15:36;;;;;;;18.77;5.75;;;0.40;90.00;;;;;;6214605;22;20015;-83
2021/03/06 04:18:03;;;;;;;20.58;6.03;;;0.40;90.00;;;;;;6190900;22;20079;-83
2021/03/06 04:20:29;;;;;;;19.42;6.25;;;0.50;89.90;;;;;;6215484;22;20087;-84
2021/03/06 04:22:55;;;;;;;12.18;6.40;;;0.50;90.10;;;;;;6188638;22;20509;-83
2021/03/06 04:25:20;;;;;;;16.95;7.18;;;0.50;90.00;;;;;;6215898;22;20081;-83
2021/03/06 04:27:46;;;;;;;11.13;6.07;;;0.50;90.00;;;;;;6166055;22;20016;-84
2021/03/06 04:30:12;;;;;;;15.38;5.90;;;0.60;90.10;;;;;;6191520;22;20015;-83
2021/03/06 04:32:38;;;;;;;15.65;5.75;;;0.60;90.10;;;;;;6213694;22;20322;-82
2021/03/06 04:35:05;;;;;;;14.60;5.55;;;0.60;90.10;;;;;;6191418;22;20344;-83
2021/03/06 04:37:31;;;;;;;16.15;5.78;;;0.60;90.00;;;;;;6191154;22;20341;-83
2021/03/06 04:39:57;;;;;;;17.13;6.13;;;0.60;90.20;;;;;;6216742;22;20015;-83
2021/03/06 04:42:22;;;;;;;15.90;5.68;;;0.60;89.90;;;;;;6190208;22;20016;-83
2021/03/06 04:44:48;;;;;;;13.23;5.40;;;0.60;89.80;;;;;;6191241;22;20007;-83
2021/03/06 04:47:14;;;;;;;13.88;5.68;;;0.70;89.90;;;;;;6215831;22;20117;-83
2021/03/06 04:49:40;;;;;;;11.50;5.95;;;0.70;89.90;;;;;;6189605;22;20022;-83
2021/03/06 04:52:06;;;;;;;12.45;5.65;;;0.70;89.90;;;;;;6216210;22;20015;-84
2021/03/06 04:54:32;;;;;;;20.92;5.55;;;0.70;90.00;;;;;;6191229;22;20022;-83
2021/03/06 04:56:57;;;;;;;15.68;6.32;;;0.80;90.00;;;;;;6190229;22;20019;-84
2021/03/06 04:59:23;;;;;;;15.30;6.22;;;0.70;90.00;;;;;;6222831;22;20012;-85
2021/03/06 05:01:49;;;;;;;15.40;5.95;;;0.70;90.00;;;;;;6224311;22;20331;-83
2021/03/06 05:04:14;;;;;;;15.77;5.85;;;0.70;90.00;;;;;;6248989;22;20008;-85
2021/03/06 05:06:40;;;;;;;15.00;5.00;;;0.80;90.00;;;;;;6246961;22;20007;-86
2021/03/06 05:09:06;;;;;;;16.08;5.03;;;0.80;90.00;;;;;;6223936;22;20020;-84
2021/03/06 05:11:32;;;;;;;15.45;5.20;;;0.80;90.00;;;;;;6199285;22;20012;-84
2021/03/06 05:13:57;;;;;;;15.68;4.88;;;0.80;90.00;;;;;;6201004;22;20019;-85
2021/03/06 05:16:23;;;;;;;12.30;4.93;;;0.80;90.10;;;;;;6225330;22;20034;-85
2021/03/06 05:18:49;;;;;;;13.88;4.70;;;0.90;90.30;;;;;;6199504;22;20008;-84
2021/03/06 05:21:15;;;;;;;14.85;5.40;;;0.90;90.00;;;;;;6172733;22;20434;-84
2021/03/06 05:23:40;;;;;;;14.77;4.93;;;0.90;90.00;;;;;;6198139;22;20016;-84
2021/03/06 05:26:06;;;;;;;18.75;4.97;;;0.90;90.00;;;;;;6198893;22;20034;-84
2021/03/06 05:28:32;;;;;;;14.25;5.00;;;0.90;90.00;;;;;;6222510;22;20352;-84
2021/03/06 05:30:57;;;;;;;12.73;4.63;;;0.90;89.90;;;;;;6192868;22;20019;-84
2021/03/06 05:33:23;;;;;;;17.27;4.93;;;0.90;89.90;;;;;;6216725;22;20478;-84
2021/03/06 05:35:49;;;;;;;9.32;4.47;;;0.90;90.00;;;;;;6191434;22;20061;-85
2021/03/06 05:38:15;;;;;;;15.70;5.22;;;0.90;90.00;;;;;;6189780;22;20012;-84
2021/03/06 05:40:42;;;;;;;12.52;4.57;;;0.90;90.00;;;;;;6241693;22;20333;-85
2021/03/06 05:43:08;;;;;;;12.38;4.50;;;1.00;90.30;;;;;;6189075;22;20015;-84
2021/03/06 05:45:34;;;;;;;11.75;4.40;;;1.00;90.00;;;;;;6189974;22;20015;-84
2021/03/06 05:48:00;;;;;;;9.70;4.97;;;1.00;90.00;;;;;;6187495;22;20018;-85
2021/03/06 05:50:26;;;;;;;11.73;4.40;;;1.00;90.10;;;;;;6189541;22;20444;-85
2021/03/06 05:52:52;;;;;;;7.72;4.15;;;1.10;90.20;;;;;;6188584;22;20043;-84
2021/03/06 05:55:18;;;;;;;9.98;4.85;;;1.10;90.00;;;;;;6188291;22;20380;-86
2021/03/06 05:57:45;;;;;;;12.45;3.55;;;1.10;90.00;;;;;;6190164;22;20040;-84
2021/03/06 06:00:11;;;;;;;19.38;4.03;;;1.20;90.00;;;;;;6221006;22;20035;-85
2021/03/06 06:02:38;;;;;;;17.02;4.40;;;1.20;90.00;;;;;;6189863;22;20232;-85
2021/03/06 06:05:04;;;;;;;16.15;4.45;;;1.20;90.00;;;;;;6187249;22;20014;-85
2021/03/06 06:07:30;;;;;;;12.85;4.40;;;1.20;90.00;;;;;;6187972;22;20012;-85
2021/03/06 06:09:55;;;;;;;10.63;4.10;;;1.20;90.00;;;;;;6187830;22;20058;-84
2021/03/06 06:12:21;;;;;;;8.88;3.88;;;1.30;90.00;;;;;;6212910;22;20015;-83
2021/03/06 06:14:47;;;;;;;12.52;3.92;;;1.30;89.90;;;;;;6212939;22;20079;-85
2021/03/06 06:17:12;;;;;;;11.88;3.95;;;1.30;89.90;;;;;;6237524;22;20007;-83
2021/03/06 06:19:39;;;;;;;11.88;3.55;;;1.30;89.80;;;;;;6187411;22;20023;-84
2021/03/06 06:22:22;;;;;;;10.85;3.50;;;1.30;89.80;;;;;;6187165;22;20007;-84
2021/03/06 06:24:49;;;;;;;10.85;3.38;;;1.30;89.70;;;;;;6186745;22;20016;-84
2021/03/06 06:27:25;;;;;;;12.75;3.25;;;1.30;89.60;;;;;;6237416;22;20015;-84
2021/03/06 06:29:52;;;;;;;6.55;2.75;;;1.40;89.70;;;;;;6188738;22;20019;-84
2021/03/06 06:32:19;;;;;;;9.55;2.85;;;1.40;89.60;;;;;;6188839;22;20050;-84
2021/03/06 06:35:01;;;;;;;14.90;3.45;;;1.40;89.70;;;;;;6188142;22;20050;-84
2021/03/06 06:37:29;;;;;;;10.20;3.28;;;1.50;89.70;;;;;;6264116;22;20023;-84
2021/03/06 06:39:55;;;;;;;7.18;2.78;;;1.50;89.50;;;;;;6187169;22;20486;-84
2021/03/06 06:42:34;;;;;;;7.82;3.20;;;1.50;89.40;;;;;;6188402;22;20012;-84
2021/03/06 06:45:01;;;;;;;13.82;3.30;;;1.50;89.50;;;;;;6165445;22;20049;-84
2021/03/06 06:47:38;;;;;;;8.55;2.40;;;1.50;89.40;;;;;;6163579;22;20015;-84
2021/03/06 06:50:05;;;;;;;9.38;3.05;;;1.60;89.40;;;;;;6187806;22;20444;-85
2021/03/06 06:52:44;;;;;;;8.52;2.63;;;1.60;89.30;;;;;;6187306;22;20031;-83
2021/03/06 06:55:11;;;;;;;9.15;2.63;;;1.70;89.40;;;;;;6186189;22;20015;-85
2021/03/06 06:58:06;;;;;;;11.43;2.60;;;1.70;89.30;;;;;;6186063;22;20019;-84
2021/03/06 07:00:33;;;;;;;9.35;3.00;;;1.80;89.70;;;;;;6180532;22;20306;-84
2021/03/06 07:03:05;;;;;;;8.70;3.28;;;1.90;89.30;;;;;;6188602;22;20007;-83
2021/03/06 07:05:38;;;;;;;8.40;3.28;;;1.90;89.30;;;;;;6193647;22;20011;-84
2021/03/06 07:08:08;;;;;;;11.77;2.80;;;1.90;89.20;;;;;;6212634;22;20042;-85
2021/03/06 07:10:38;;;;;;;9.52;4.22;;;2.00;89.20;;;;;;6209678;22;20015;-85
2021/03/06 07:13:15;;;;;;;8.77;3.60;;;2.00;89.20;;;;;;6186251;22;20069;-84
2021/03/06 07:15:41;;;;;;;13.65;4.15;;;2.10;89.40;;;;;;6224343;22;20011;-85
2021/03/06 07:18:08;;;;;;;12.43;3.30;;;2.10;89.40;;;;;;6185743;22;20016;-84
2021/03/06 07:20:34;;;;;;;10.23;3.38;;;2.20;89.40;;;;;;6187630;22;20039;-85
2021/03/06 07:23:12;;;;;;;9.48;2.95;;;2.20;89.50;;;;;;6209374;22;20012;-85
2021/03/06 07:25:38;;;;;;;7.22;2.97;;;2.20;89.50;;;;;;6235585;22;20016;-85
2021/03/06 07:28:05;;;;;;;12.05;2.97;;;2.30;89.50;;;;;;6185221;22;20019;-83
2021/03/06 07:30:30;;;;;;;7.60;2.90;;;2.40;89.70;;;;;;6185107;22;20098;-84
2021/03/06 07:32:56;;;;;;;9.18;3.25;;;2.40;89.70;;;;;;6188846;22;20461;-84
2021/03/06 07:35:22;;;;;;;10.50;3.28;;;2.40;89.60;;;;;;6186762;22;20395;-84
2021/03/06 07:37:48;;;;;;;9.10;2.83;;;2.50;89.70;;;;;;6188226;22;20008;-84
2021/03/06 07:40:14;;;;;;;12.80;2.88;;;2.50;89.50;;;;;;6187990;22;20019;-84
2021/03/06 07:42:47;;;;;;;14.95;5.57;;;2.60;89.50;;;;;;6211634;22;20020;-83
2021/03/06 07:45:20;;;;;;;9.25;3.88;;;2.70;89.50;;;;;;6162297;22;20011;-85
2021/03/06 07:47:49;;;;;;;12.02;3.50;;;2.70;89.30;;;;;;6187455;22;20103;-85
2021/03/06 07:50:25;;;;;;;7.40;2.80;;;2.80;89.30;;;;;;6186268;22;20099;-85
2021/03/06 07:52:51;;;;;;;10.13;3.33;;;2.80;89.20;;;;;;6187862;22;20015;-84
2021/03/06 07:55:18;;;;;;;9.10;2.80;;;2.80;89.00;;;;;;6185758;22;20030;-84
2021/03/06 07:58:03;;;;;;;7.80;2.70;;;2.90;89.00;;;;;;6209578;22;20077;-85
2021/03/06 08:00:50;;;;;;;9.10;2.88;;;3.00;89.10;;;;;;6186226;22;20723;-85
2021/03/06 08:05:53;;;;;;;9.25;3.03;;;3.10;88.80;;;;;;6261911;22;20474;-84
2021/03/06 08:08:33;;;;;;;10.13;2.88;;;3.20;88.80;;;;;;6185395;22;20021;-85
2021/03/06 08:11:06;;;;;;;6.95;2.80;;;3.20;88.90;;;;;;6235533;22;20023;-85
2021/03/06 08:13:47;;;;;;;8.50;2.60;;;3.20;88.60;;;;;;6210088;22;20020;-85
2021/03/06 08:16:25;;;;;;;8.45;2.22;;;3.20;88.60;;;;;;6220930;22;20090;-86
2021/03/06 08:18:54;;;;;;;6.85;2.10;;;3.30;88.50;;;;;;6237180;22;20351;-85
2021/03/06 08:21:33;;;;;;;4.20;1.70;;;3.40;88.40;;;;;;6213990;22;20081;-85
2021/03/06 08:24:18;;;;;;;4.93;1.85;;;3.40;88.10;;;;;;6214254;22;20019;-84
2021/03/06 08:26:52;;;;;;;5.13;1.92;;;3.50;88.00;;;;;;6235923;22;20097;-85
2021/03/06 08:29:24;;;;;;;7.47;1.90;;;3.50;87.80;;;;;;6187048;22;20333;-84
2021/03/06 08:32:03;;;;;;;7.70;2.33;;;3.60;87.70;;;;;;6235369;22;20016;-86
2021/03/06 08:34:51;;;;;;;2.97;1.40;;;3.70;87.70;;;;;;6234975;22;20062;-84
2021/03/06 08:37:19;;;;;;;8.02;2.15;;;3.90;87.60;;;;;;6218543;22;20061;-86
2021/03/06 08:39:57;;;;;;;6.97;1.48;;;3.90;87.30;;;;;;6262834;22;20019;-86
2021/03/06 08:42:27;;;;;;;4.68;1.40;;;4.00;87.10;;;;;;6236193;22;20018;-84
2021/03/06 08:44:54;;;;;;;5.40;1.80;;;4.10;86.70;;;;;;6234364;22;20008;-85
2021/03/06 08:47:27;;;;;;;5.93;1.50;;;4.10;86.60;;;;;;6209913;22;20019;-86
2021/03/06 08:49:55;;;;;;;7.38;1.88;;;4.00;86.50;;;;;;6196041;22;20046;-85
2021/03/06 08:52:21;;;;;;;9.73;2.20;;;3.90;86.40;;;;;;6184909;22;20483;-86
2021/03/06 08:54:47;;;;;;;5.50;2.10;;;3.90;86.50;;;;;;6183770;22;20534;-85
2021/03/06 08:57:31;;;;;;;11.57;2.50;;;3.90;86.60;;;;;;6154463;22;20432;-85
2021/03/06 08:59:57;;;;;;;7.88;2.10;;;3.90;86.90;;;;;;6195251;22;20247;-85
2021/03/06 09:02:30;;;;;;;8.07;1.98;;;4.00;86.80;;;;;;6184669;22;20015;-84
2021/03/06 09:05:08;;;;;;;7.18;1.52;;;4.10;86.70;;;;;;6210424;22;20438;-85
2021/03/06 09:07:36;;;;;;;2.45;1.27;;;4.10;86.30;;;;;;6236676;22;20008;-86
2021/03/06 09:10:15;;;;;;;6.95;1.23;;;4.20;86.00;;;;;;6189546;22;20035;-89
2021/03/06 09:12:41;;;;;;;2.65;1.08;;;4.20;85.70;;;;;;6216918;22;20089;-86
2021/03/06 09:15:09;;;;;;;2.78;1.00;;;4.30;85.40;;;;;;6190813;22;20012;-87
2021/03/06 09:17:34;;;;;;;7.20;1.27;;;4.40;85.00;;;;;;6191074;22;20039;-86
2021/03/06 09:20:03;;;;;;;2.05;0.90;;;4.50;84.90;;;;;;6190649;22;20015;-85
2021/03/06 09:22:38;;;;;;;3.45;1.10;;;4.60;84.70;;;;;;6192727;22;20008;-86
2021/03/06 09:25:04;;;;;;;2.38;0.90;;;4.90;84.80;;;;;;6196566;22;20008;-87
2021/03/06 09:27:42;;;;;;;4.40;1.45;;;5.10;84.20;;;;;;6201491;22;20020;-88
2021/03/06 09:30:21;;;;;;;5.10;1.13;;;5.20;83.60;;;;;;6189105;22;20055;-87
2021/03/06 09:32:47;;;;;;;10.13;1.33;;;5.20;83.40;;;;;;6246102;22;20471;-87
2021/03/06 09:37:46;;;;;;;3.63;1.10;;;5.00;82.30;;;;;;5118161;27;20348;-80
2021/03/06 09:40:22;;;;;;;3.80;1.13;;;4.90;82.90;;;;;;4937749;28;20133;-87
2021/03/06 09:42:51;;;;;;;3.72;1.10;;;5.10;82.50;;;;;;4993859;28;20053;-87
2021/03/06 09:45:17;;;;;;;4.63;0.80;;;5.10;82.90;;;;;;4999783;28;20118;-86
2021/03/06 09:47:44;;;;;;;4.65;1.10;;;5.20;82.70;;;;;;4980607;28;20050;-87
2021/03/06 09:50:12;;;;;;;3.22;1.10;;;5.30;81.70;;;;;;4971529;28;20571;-88
2021/03/06 09:52:37;;;;;;;2.22;0.90;;;5.40;83.00;;;;;;4974337;28;20042;-88
2021/03/06 09:55:15;;;;;;;3.70;2.05;;;5.40;82.70;;;;;;4983218;28;20038;-89
2021/03/06 09:57:41;;;;;;;3.55;1.23;;;5.50;81.70;;;;;;4988889;28;20062;-86
2021/03/06 10:00:08;;;;;;;2.50;1.13;;;5.60;81.50;;;;;;4993296;28;20492;-84
2021/03/06 10:02:34;;;;;;;4.05;1.35;;;5.60;81.40;;;;;;4974625;28;20061;-88
2021/03/06 10:05:00;;;;;;;4.45;1.60;;;5.60;81.00;;;;;;4991196;28;20101;-85
2021/03/06 10:07:28;;;;;;;8.02;1.40;;;5.60;81.30;;;;;;4977545;28;20084;-90
2021/03/06 10:09:53;;;;;;;7.60;1.63;;;5.60;82.00;;;;;;4994230;28;20277;-85
2021/03/06 10:12:20;;;;;;;6.47;1.77;;;5.70;82.70;;;;;;5007870;28;20460;-85
2021/03/06 10:14:49;;;;;;;9.57;1.95;;;5.90;82.40;;;;;;4970574;28;20057;-86
2021/03/06 10:17:23;;;;;;;9.98;1.98;;;6.10;82.40;;;;;;4992533;28;20049;-86
2021/03/06 10:19:50;;;;;;;8.77;1.88;;;6.10;81.60;;;;;;4997980;28;20030;-85
2021/03/06 10:22:18;;;;;;;10.23;1.95;;;6.30;81.90;;;;;;4996037;28;20483;-84
2021/03/06 10:24:53;;;;;;;6.05;1.42;;;6.40;81.50;;;;;;5010866;28;20034;-87
2021/03/06 10:27:45;;;;;;;8.93;1.85;;;6.50;81.00;;;;;;5016159;28;20124;-86
2021/03/06 10:30:12;;;;;;;5.18;1.45;;;6.50;80.90;;;;;;4999110;28;20053;-85
2021/03/06 10:32:40;;;;;;;9.18;1.80;;;6.50;81.20;;;;;;4998264;28;20042;-88
2021/03/06 10:35:27;;;;;;;2.47;1.35;;;6.50;81.10;;;;;;5018822;28;20036;-87
2021/03/06 10:37:52;;;;;;;8.23;1.70;;;6.50;80.30;;;;;;5009728;28;20045;-85
2021/03/06 10:40:19;;;;;;;7.25;1.77;;;6.40;80.00;;;;;;4965887;28;20057;-88
2021/03/06 10:42:47;;;;;;;5.75;1.38;;;6.40;80.40;;;;;;4978557;28;20056;-85
2021/03/06 10:45:28;;;;;;;5.10;1.58;;;6.30;80.40;;;;;;4992035;28;20053;-85
2021/03/06 10:47:57;;;;;;;3.72;1.40;;;6.30;80.10;;;;;;5013797;28;20050;-86
2021/03/06 10:50:30;;;;;;;5.03;1.60;;;6.30;80.40;;;;;;4997733;28;20046;-85
2021/03/06 10:53:19;;;;;;;10.85;1.85;;;6.30;80.30;;;;;;4990778;28;20041;-84
2021/03/06 10:55:47;;;;;;;6.10;1.60;;;6.30;80.10;;;;;;4990311;28;20520;-85
2021/03/06 10:58:14;;;;;;;7.13;1.45;;;6.50;80.60;;;;;;4997498;28;20041;-85
2021/03/06 11:00:41;;;;;;;11.73;2.10;;;6.70;80.50;;;;;;4984921;28;20697;-86
2021/03/06 11:03:09;;;;;;;3.88;1.42;;;6.90;79.70;;;;;;4972754;28;20469;-85
2021/03/06 11:05:37;;;;;;;5.57;1.13;;;7.00;79.60;;;;;;4988121;28;20588;-85
2021/03/06 11:08:20;;;;;;;4.40;1.48;;;7.30;78.40;;;;;;4976061;28;20053;-86
2021/03/06 11:10:48;;;;;;;5.65;2.10;;;7.30;77.20;;;;;;4994860;28;20034;-86
2021/03/06 11:13:15;;;;;;;4.32;1.65;;;7.20;77.00;;;;;;4994783;28;20652;-84
2021/03/06 11:15:52;;;;;;;4.05;1.33;;;7.20;76.90;;;;;;4967676;28;20050;-85
2021/03/06 11:18:19;;;;;;;4.68;1.50;;;7.20;77.20;;;;;;4981141;28;20057;-85
2021/03/06 11:20:45;;;;;;;3.83;1.15;;;7.30;77.20;;;;;;5006471;28;20175;-88
2021/03/06 11:23:11;;;;;;;5.32;1.50;;;7.50;76.40;;;;;;4983969;28;20502;-89
2021/03/06 11:25:37;;;;;;;4.18;1.30;;;7.70;75.60;;;;;;4979666;28;20136;-87
2021/03/06 11:28:05;;;;;;;5.07;1.77;;;7.90;75.50;;;;;;4987716;28;20177;-85
2021/03/06 11:30:35;;;;;;;3.67;1.50;;;8.10;75.50;;;;;;4998736;28;20759;-85
2021/03/06 11:33:02;;;;;;;5.50;1.13;;;8.20;73.80;;;;;;4981293;28;20678;-89
2021/03/06 11:35:29;;;;;;;2.85;1.40;;;8.30;73.00;;;;;;4980098;28;20034;-86
2021/03/06 11:37:55;;;;;;;6.97;1.33;;;8.20;73.10;;;;;;4968766;28;20042;-85
2021/03/06 11:40:26;;;;;;;6.22;1.45;;;8.20;73.10;;;;;;5002368;28;20041;-86
2021/03/06 11:42:52;;;;;;;3.25;1.35;;;8.10;72.40;;;;;;4977035;28;20136;-88
2021/03/06 11:45:19;;;;;;;5.25;1.33;;;8.00;72.40;;;;;;4947267;28;20050;-85
2021/03/06 11:47:51;;;;;;;8.68;1.85;;;7.90;72.80;;;;;;4926667;28;20131;-87
2021/03/06 11:50:46;;;;;;;6.00;1.50;;;8.00;73.20;;;;;;4923242;28;20069;-87
2021/03/06 11:53:15;;;;;;;8.43;1.50;;;8.00;72.40;;;;;;4831721;29;20041;-87
2021/03/06 11:55:41;;;;;;;5.93;1.45;;;8.10;72.80;;;;;;4942674;28;20409;-89
2021/03/06 11:58:09;;;;;;;5.65;1.40;;;8.30;72.70;;;;;;4977633;28;20081;-88
2021/03/06 12:00:44;;;;;;;5.45;1.60;;;8.60;71.60;;;;;;4956662;28;20034;-86
2021/03/06 12:03:18;;;;;;;3.30;1.05;;;8.80;70.80;;;;;;4938467;28;20185;-88
2021/03/06 12:05:52;;;;;;;3.10;1.10;;;9.00;70.90;;;;;;4972078;28;20462;-87
2021/03/06 12:11:45;;;;;;;3.50;1.20;;;9.20;68.60;;;;;;4958791;28;20042;-87
2021/03/06 12:14:16;;;;;;;4.30;1.50;;;9.00;69.30;;;;;;4933569;28;20149;-86
2021/03/06 12:16:51;;;;;;;3.83;1.70;;;8.80;69.20;;;;;;4989727;28;20064;-86
2021/03/06 12:19:32;;;;;;;4.38;1.85;;;8.60;69.90;;;;;;4977946;28;20058;-86
2021/03/06 12:22:04;;;;;;;3.58;1.20;;;8.50;70.00;;;;;;4964138;28;20120;-86
2021/03/06 12:24:30;;;;;;;4.85;1.10;;;8.40;70.00;;;;;;4958285;28;20518;-86
2021/03/06 12:26:56;;;;;;;4.10;1.17;;;8.40;69.90;;;;;;4961080;28;20126;-86
2021/03/06 12:29:22;;;;;;;2.53;1.30;;;8.40;69.30;;;;;;4988696;28;20433;-86
2021/03/06 12:31:54;;;;;;;2.97;1.13;;;8.40;68.80;;;;;;4937986;28;20085;-86
2021/03/06 12:34:22;;;;;;;4.63;1.40;;;8.50;69.00;;;;;;4976713;28;20049;-86
2021/03/06 12:36:50;;;;;;;2.35;1.00;;;8.50;68.80;;;;;;4950665;28;20042;-86
2021/03/06 12:39:21;;;;;;;3.95;1.35;;;8.60;69.30;;;;;;4977094;28;20056;-86
2021/03/06 12:41:52;;;;;;;3.55;0.90;;;8.70;68.30;;;;;;4995523;28;20052;-86
2021/03/06 12:44:19;;;;;;;5.07;1.02;;;8.70;67.90;;;;;;4978516;28;20153;-86
2021/03/06 12:46:47;;;;;;;3.75;0.90;;;8.60;67.80;;;;;;4997270;28;20552;-86
2021/03/06 12:49:17;;;;;;;3.50;1.10;;;8.40;67.40;;;;;;4972431;28;20772;-85
2021/03/06 12:51:43;;;;;;;1.77;0.80;;;8.30;67.90;;;;;;4989380;28;20038;-85
2021/03/06 12:54:09;;;;;;;1.70;0.70;;;8.20;68.40;;;;;;4987814;28;20045;-85
2021/03/06 12:56:38;;;;;;;1.83;0.75;;;8.10;68.60;;;;;;4972908;28;20409;-85
2021/03/06 12:59:06;;;;;;;2.83;1.08;;;8.00;68.50;;;;;;4975794;28;20050;-86
2021/03/06 13:01:41;;;;;;;4.50;0.90;;;7.90;69.00;;;;;;4961488;28;20501;-86
2021/03/06 13:04:14;;;;;;;2.67;1.20;;;7.90;69.20;;;;;;4976353;28;20373;-85
2021/03/06 13:06:40;;;;;;;0.80;0.70;;;7.80;69.20;;;;;;4961727;28;20050;-85